sensor_id;sensor_type;location;lat;lon;timestamp;pressure;altitude;pressure_sealevel;temperature;humidity
62655;BME280;48717;55.556;37.816;2023-07-13T00:01:55;98527.06;;;11.78;85.53
62655;BME280;48717;55.556;37.816;2023-07-13T00:04:24;98523.63;;;11.75;85.47
62655;BME280;48717;55.556;37.816;2023-07-13T00:06:53;98526.19;;;11.79;86.20
62655;BME280;48717;55.556;37.816;2023-07-13T00:09:21;98522.78;;;11.73;86.13
62655;BME280;48717;55.556;37.816;2023-07-13T00:11:54;98520.97;;;11.75;86.22
62655;BME280;48717;55.556;37.816;2023-07-13T00:14:23;98520.97;;;11.75;85.91
62655;BME280;48717;55.556;37.816;2023-07-13T00:16:50;98528.94;;;11.74;86.28
62655;BME280;48717;55.556;37.816;2023-07-13T00:19:18;98507.09;;;11.67;85.76
62655;BME280;48717;55.556;37.816;2023-07-13T00:21:46;98518.50;;;11.69;85.92
62655;BME280;48717;55.556;37.816;2023-07-13T00:24:16;98501.91;;;11.64;85.61
62655;BME280;48717;55.556;37.816;2023-07-13T00:26:45;98496.63;;;11.64;86.13
62655;BME280;48717;55.556;37.816;2023-07-13T00:29:13;98501.91;;;11.64;85.99
62655;BME280;48717;55.556;37.816;2023-07-13T00:31:40;98515.69;;;11.75;86.08
62655;BME280;48717;55.556;37.816;2023-07-13T00:34:07;98498.53;;;11.59;85.80
62655;BME280;48717;55.556;37.816;2023-07-13T00:36:35;98501.13;;;11.60;85.90
62655;BME280;48717;55.556;37.816;2023-07-13T00:39:03;98507.03;;;11.70;85.36
62655;BME280;48717;55.556;37.816;2023-07-13T00:41:31;98529.63;;;11.81;85.45
62655;BME280;48717;55.556;37.816;2023-07-13T00:43:59;98533.13;;;11.83;85.71
62655;BME280;48717;55.556;37.816;2023-07-13T00:46:31;98526.00;;;11.85;85.36
62655;BME280;48717;55.556;37.816;2023-07-13T00:49:01;98520.72;;;11.85;85.41
62655;BME280;48717;55.556;37.816;2023-07-13T00:51:45;98525.94;;;11.88;84.63
62655;BME280;48717;55.556;37.816;2023-07-13T00:54:26;98526.84;;;11.87;84.83
62655;BME280;48717;55.556;37.816;2023-07-13T00:56:58;98509.47;;;11.78;84.65
62655;BME280;48717;55.556;37.816;2023-07-13T00:59:26;98515.44;;;11.85;84.29
62655;BME280;48717;55.556;37.816;2023-07-13T01:01:54;98525.75;;;11.94;84.51
62655;BME280;48717;55.556;37.816;2023-07-13T01:04:24;98527.47;;;11.95;84.18
62655;BME280;48717;55.556;37.816;2023-07-13T01:06:52;98489.22;;;11.79;83.68
62655;BME280;48717;55.556;37.816;2023-07-13T01:09:20;98524.75;;;11.98;83.50
62655;BME280;48717;55.556;37.816;2023-07-13T01:11:48;98527.25;;;12.05;83.68
62655;BME280;48717;55.556;37.816;2023-07-13T01:14:16;98514.84;;;12.08;83.20
62655;BME280;48717;55.556;37.816;2023-07-13T01:16:45;98507.03;;;12.02;82.98
62655;BME280;48717;55.556;37.816;2023-07-13T01:19:35;98480.13;;;11.89;82.59
62655;BME280;48717;55.556;37.816;2023-07-13T01:22:05;98521.81;;;12.11;82.63
62655;BME280;48717;55.556;37.816;2023-07-13T01:24:36;98517.41;;;12.11;82.30
62655;BME280;48717;55.556;37.816;2023-07-13T01:27:04;98520.09;;;12.10;82.37
62655;BME280;48717;55.556;37.816;2023-07-13T01:29:34;98497.34;;;12.02;82.21
62655;BME280;48717;55.556;37.816;2023-07-13T01:32:10;98502.59;;;12.06;82.52
62655;BME280;48717;55.556;37.816;2023-07-13T01:34:38;98479.94;;;11.95;82.65
62655;BME280;48717;55.556;37.816;2023-07-13T01:37:11;98499.72;;;12.13;82.46
62655;BME280;48717;55.556;37.816;2023-07-13T01:39:39;98500.69;;;12.11;82.51
62655;BME280;48717;55.556;37.816;2023-07-13T01:42:06;98491.84;;;12.12;82.85
62655;BME280;48717;55.556;37.816;2023-07-13T01:44:34;98503.25;;;12.14;82.71
62655;BME280;48717;55.556;37.816;2023-07-13T01:47:01;98497.06;;;12.13;82.63
62655;BME280;48717;55.556;37.816;2023-07-13T01:49:29;98496.16;;;12.14;82.46
62655;BME280;48717;55.556;37.816;2023-07-13T01:51:56;98505.88;;;12.14;82.10
62655;BME280;48717;55.556;37.816;2023-07-13T01:54:23;98481.47;;;12.06;82.69
62655;BME280;48717;55.556;37.816;2023-07-13T01:56:50;98485.81;;;12.07;83.29
62655;BME280;48717;55.556;37.816;2023-07-13T01:59:17;98487.47;;;12.11;82.95
62655;BME280;48717;55.556;37.816;2023-07-13T02:01:44;98495.41;;;12.11;82.98
62655;BME280;48717;55.556;37.816;2023-07-13T02:04:12;98491.00;;;12.11;83.09
62655;BME280;48717;55.556;37.816;2023-07-13T02:06:39;98486.56;;;12.12;83.12
62655;BME280;48717;55.556;37.816;2023-07-13T02:09:06;98471.00;;;11.99;83.55
62655;BME280;48717;55.556;37.816;2023-07-13T02:11:33;98493.75;;;12.07;84.18
62655;BME280;48717;55.556;37.816;2023-07-13T02:14:03;98490.34;;;12.01;84.55
62655;BME280;48717;55.556;37.816;2023-07-13T02:16:32;98497.44;;;11.99;85.00
62655;BME280;48717;55.556;37.816;2023-07-13T02:19:00;98480.88;;;11.93;85.16
62655;BME280;48717;55.556;37.816;2023-07-13T02:21:28;98486.97;;;11.96;84.88
62655;BME280;48717;55.556;37.816;2023-07-13T02:23:55;98482.81;;;11.87;85.35
62655;BME280;48717;55.556;37.816;2023-07-13T02:26:24;98471.38;;;11.87;85.33
62655;BME280;48717;55.556;37.816;2023-07-13T02:28:53;98488.69;;;11.97;85.23
62655;BME280;48717;55.556;37.816;2023-07-13T02:31:20;98488.69;;;11.97;85.51
62655;BME280;48717;55.556;37.816;2023-07-13T02:33:47;98474.75;;;11.92;85.32
62655;BME280;48717;55.556;37.816;2023-07-13T02:36:15;98483.56;;;11.91;85.69
62655;BME280;48717;55.556;37.816;2023-07-13T02:38:44;98476.41;;;11.96;85.69
62655;BME280;48717;55.556;37.816;2023-07-13T02:41:11;98454.03;;;11.77;85.57
62655;BME280;48717;55.556;37.816;2023-07-13T02:43:39;98466.25;;;11.81;86.21
62655;BME280;48717;55.556;37.816;2023-07-13T02:46:09;98462.81;;;11.79;86.74
62655;BME280;48717;55.556;37.816;2023-07-13T02:48:38;98460.72;;;11.90;86.64
62655;BME280;48717;55.556;37.816;2023-07-13T02:51:06;98474.66;;;11.95;86.65
62655;BME280;48717;55.556;37.816;2023-07-13T02:53:34;98469.59;;;11.87;86.60
62655;BME280;48717;55.556;37.816;2023-07-13T02:56:04;98481.59;;;11.99;86.54
62655;BME280;48717;55.556;37.816;2023-07-13T02:58:31;98449.34;;;11.88;85.77
62655;BME280;48717;55.556;37.816;2023-07-13T03:00:59;98476.06;;;12.09;86.21
62655;BME280;48717;55.556;37.816;2023-07-13T03:03:26;98453.44;;;11.98;85.57
62655;BME280;48717;55.556;37.816;2023-07-13T03:05:59;98463.84;;;12.05;86.07
62655;BME280;48717;55.556;37.816;2023-07-13T03:08:32;98461.16;;;12.06;86.37
62655;BME280;48717;55.556;37.816;2023-07-13T03:11:07;98470.66;;;12.13;86.05
62655;BME280;48717;55.556;37.816;2023-07-13T03:13:38;98454.09;;;12.08;85.81
62655;BME280;48717;55.556;37.816;2023-07-13T03:16:06;98468.00;;;12.13;86.38
62655;BME280;48717;55.556;37.816;2023-07-13T03:18:35;98474.19;;;12.14;86.38
62655;BME280;48717;55.556;37.816;2023-07-13T03:21:05;98465.41;;;12.12;86.52
62655;BME280;48717;55.556;37.816;2023-07-13T03:23:33;98467.06;;;12.16;85.64
62655;BME280;48717;55.556;37.816;2023-07-13T03:26:10;98478.34;;;12.21;86.09
62655;BME280;48717;55.556;37.816;2023-07-13T03:28:40;98456.53;;;12.14;86.52
62655;BME280;48717;55.556;37.816;2023-07-13T03:31:18;98479.19;;;12.23;85.97
62655;BME280;48717;55.556;37.816;2023-07-13T03:33:47;98477.47;;;12.22;85.86
62655;BME280;48717;55.556;37.816;2023-07-13T03:36:19;98465.41;;;12.12;86.00
62655;BME280;48717;55.556;37.816;2023-07-13T03:38:49;98486.13;;;12.27;85.99
62655;BME280;48717;55.556;37.816;2023-07-13T03:41:21;98486.97;;;12.28;85.65
62655;BME280;48717;55.556;37.816;2023-07-13T03:43:51;98477.22;;;12.30;85.47
62655;BME280;48717;55.556;37.816;2023-07-13T03:46:20;98478.91;;;12.33;85.63
62655;BME280;48717;55.556;37.816;2023-07-13T03:48:48;98491.22;;;12.34;85.87
62655;BME280;48717;55.556;37.816;2023-07-13T03:51:17;98459.84;;;12.21;85.86
62655;BME280;48717;55.556;37.816;2023-07-13T03:53:46;98472.00;;;12.29;85.72
62655;BME280;48717;55.556;37.816;2023-07-13T03:56:17;98471.63;;;12.41;85.65
62655;BME280;48717;55.556;37.816;2023-07-13T03:58:47;98483.88;;;12.44;85.43
62655;BME280;48717;55.556;37.816;2023-07-13T04:01:19;98469.78;;;12.43;85.22
62655;BME280;48717;55.556;37.816;2023-07-13T04:03:47;98453.41;;;12.32;85.22
62655;BME280;48717;55.556;37.816;2023-07-13T04:06:17;98478.34;;;12.51;85.26
62655;BME280;48717;55.556;37.816;2023-07-13T04:08:52;98476.53;;;12.53;85.21
62655;BME280;48717;55.556;37.816;2023-07-13T04:11:22;98451.31;;;12.42;84.74
62655;BME280;48717;55.556;37.816;2023-07-13T04:13:50;98486.84;;;12.63;84.59
62655;BME280;48717;55.556;37.816;2023-07-13T04:16:18;98481.53;;;12.63;84.48
62655;BME280;48717;55.556;37.816;2023-07-13T04:18:47;98498.75;;;12.76;83.55
62655;BME280;48717;55.556;37.816;2023-07-13T04:21:15;98481.97;;;12.77;83.65
62655;BME280;48717;55.556;37.816;2023-07-13T04:23:42;98468.66;;;12.81;83.38
62655;BME280;48717;55.556;37.816;2023-07-13T04:26:10;98489.88;;;13.06;82.44
62655;BME280;48717;55.556;37.816;2023-07-13T04:28:37;98470.53;;;13.04;82.13
62655;BME280;48717;55.556;37.816;2023-07-13T04:31:05;98480.06;;;13.10;81.54
62655;BME280;48717;55.556;37.816;2023-07-13T04:33:32;98486.81;;;13.20;81.21
62655;BME280;48717;55.556;37.816;2023-07-13T04:36:00;98492.84;;;13.24;80.58
62655;BME280;48717;55.556;37.816;2023-07-13T04:38:30;98484.72;;;13.28;80.93
62655;BME280;48717;55.556;37.816;2023-07-13T04:41:04;98481.69;;;13.41;81.05
62655;BME280;48717;55.556;37.816;2023-07-13T04:43:32;98482.50;;;13.43;80.79
62655;BME280;48717;55.556;37.816;2023-07-13T04:46:11;98481.34;;;13.52;80.30
62655;BME280;48717;55.556;37.816;2023-07-13T04:48:39;98477.66;;;13.56;80.61
62655;BME280;48717;55.556;37.816;2023-07-13T04:51:07;98464.16;;;13.64;80.08
62655;BME280;48717;55.556;37.816;2023-07-13T04:53:34;98470.91;;;13.73;78.96
62655;BME280;48717;55.556;37.816;2023-07-13T04:56:03;98472.34;;;13.81;79.50
62655;BME280;48717;55.556;37.816;2023-07-13T04:58:31;98469.34;;;13.67;79.16
62655;BME280;48717;55.556;37.816;2023-07-13T05:01:03;98468.16;;;13.50;79.77
62655;BME280;48717;55.556;37.816;2023-07-13T05:03:31;98485.47;;;13.61;80.05
62655;BME280;48717;55.556;37.816;2023-07-13T05:06:04;98485.13;;;13.70;80.08
62655;BME280;48717;55.556;37.816;2023-07-13T05:08:33;98479.06;;;13.66;79.33
62655;BME280;48717;55.556;37.816;2023-07-13T05:11:01;98477.25;;;13.68;78.96
62655;BME280;48717;55.556;37.816;2023-07-13T05:13:29;98480.63;;;13.72;78.93
62655;BME280;48717;55.556;37.816;2023-07-13T05:16:04;98483.28;;;13.72;79.69
62655;BME280;48717;55.556;37.816;2023-07-13T05:18:33;98483.09;;;13.78;79.48
62655;BME280;48717;55.556;37.816;2023-07-13T05:21:03;98483.09;;;13.78;78.94
62655;BME280;48717;55.556;37.816;2023-07-13T05:23:32;98475.56;;;13.66;79.97
62655;BME280;48717;55.556;37.816;2023-07-13T05:26:00;98489.13;;;13.56;80.25
62655;BME280;48717;55.556;37.816;2023-07-13T05:28:27;98485.50;;;13.59;80.31
62655;BME280;48717;55.556;37.816;2023-07-13T05:30:56;98474.66;;;13.67;80.48
62655;BME280;48717;55.556;37.816;2023-07-13T05:33:24;98476.03;;;13.77;79.83
62655;BME280;48717;55.556;37.816;2023-07-13T05:35:51;98480.91;;;13.90;79.70
62655;BME280;48717;55.556;37.816;2023-07-13T05:38:18;98474.22;;;14.03;78.28
62655;BME280;48717;55.556;37.816;2023-07-13T05:40:46;98483.09;;;14.26;77.23
62655;BME280;48717;55.556;37.816;2023-07-13T05:43:14;98482.78;;;14.35;76.56
62655;BME280;48717;55.556;37.816;2023-07-13T05:45:42;98469.34;;;14.40;75.33
62655;BME280;48717;55.556;37.816;2023-07-13T05:48:09;98484.41;;;14.62;75.33
62655;BME280;48717;55.556;37.816;2023-07-13T05:50:36;98475.69;;;14.82;74.42
62655;BME280;48717;55.556;37.816;2023-07-13T05:53:03;98472.06;;;15.07;73.02
62655;BME280;48717;55.556;37.816;2023-07-13T05:55:30;98477.25;;;15.31;72.17
62655;BME280;48717;55.556;37.816;2023-07-13T05:57:58;98478.34;;;15.48;71.78
62655;BME280;48717;55.556;37.816;2023-07-13T06:00:26;98482.06;;;15.64;69.62
62655;BME280;48717;55.556;37.816;2023-07-13T06:02:53;98469.16;;;15.76;69.56
62655;BME280;48717;55.556;37.816;2023-07-13T06:05:20;98481.25;;;15.83;67.54
62655;BME280;48717;55.556;37.816;2023-07-13T06:07:47;98466.25;;;15.82;66.83
62655;BME280;48717;55.556;37.816;2023-07-13T06:10:14;98470.56;;;15.85;67.97
62655;BME280;48717;55.556;37.816;2023-07-13T06:12:42;98472.16;;;15.89;67.42
62655;BME280;48717;55.556;37.816;2023-07-13T06:15:09;98477.94;;;15.99;66.83
62655;BME280;48717;55.556;37.816;2023-07-13T06:17:36;98463.19;;;15.91;66.83
62655;BME280;48717;55.556;37.816;2023-07-13T06:20:04;98473.41;;;15.80;66.90
62655;BME280;48717;55.556;37.816;2023-07-13T06:22:31;98458.28;;;15.82;66.71
62655;BME280;48717;55.556;37.816;2023-07-13T06:24:58;98456.81;;;15.96;65.92
62655;BME280;48717;55.556;37.816;2023-07-13T06:27:25;98462.88;;;16.18;65.07
62655;BME280;48717;55.556;37.816;2023-07-13T06:29:56;98446.19;;;16.34;64.14
62655;BME280;48717;55.556;37.816;2023-07-13T06:32:23;98465.00;;;16.68;63.19
62655;BME280;48717;55.556;37.816;2023-07-13T06:34:51;98464.88;;;16.71;62.66
62655;BME280;48717;55.556;37.816;2023-07-13T06:37:19;98461.00;;;16.78;62.99
62655;BME280;48717;55.556;37.816;2023-07-13T06:39:46;98461.94;;;16.58;62.37
62655;BME280;48717;55.556;37.816;2023-07-13T06:42:13;98452.53;;;16.51;62.26
62655;BME280;48717;55.556;37.816;2023-07-13T06:44:40;98457.53;;;16.57;61.73
62655;BME280;48717;55.556;37.816;2023-07-13T06:47:07;98445.03;;;16.59;61.47
62655;BME280;48717;55.556;37.816;2023-07-13T06:49:35;98441.88;;;16.51;61.16
62655;BME280;48717;55.556;37.816;2023-07-13T06:52:02;98453.66;;;16.64;60.29
62655;BME280;48717;55.556;37.816;2023-07-13T06:54:29;98452.50;;;16.89;59.47
62655;BME280;48717;55.556;37.816;2023-07-13T06:56:56;98448.66;;;16.95;57.84
62655;BME280;48717;55.556;37.816;2023-07-13T06:59:23;98451.47;;;17.11;56.89
62655;BME280;48717;55.556;37.816;2023-07-13T07:01:50;98453.19;;;17.30;56.96
62655;BME280;48717;55.556;37.816;2023-07-13T07:04:17;98442.06;;;17.39;58.54
62655;BME280;48717;55.556;37.816;2023-07-13T07:06:44;98445.97;;;17.49;57.01
62655;BME280;48717;55.556;37.816;2023-07-13T07:09:12;98460.38;;;17.45;57.08
62655;BME280;48717;55.556;37.816;2023-07-13T07:11:40;98450.13;;;17.38;57.79
62655;BME280;48717;55.556;37.816;2023-07-13T07:14:28;98442.47;;;17.31;56.55
62655;BME280;48717;55.556;37.816;2023-07-13T07:16:55;98449.56;;;17.13;58.06
62655;BME280;48717;55.556;37.816;2023-07-13T07:19:22;98454.41;;;17.22;58.45
62655;BME280;48717;55.556;37.816;2023-07-13T07:21:49;98468.00;;;17.18;57.84
62655;BME280;48717;55.556;37.816;2023-07-13T07:24:16;98467.56;;;17.08;58.44
62655;BME280;48717;55.556;37.816;2023-07-13T07:26:43;98462.75;;;16.97;58.20
62655;BME280;48717;55.556;37.816;2023-07-13T07:29:13;98460.78;;;17.01;58.45
62655;BME280;48717;55.556;37.816;2023-07-13T07:31:43;98441.78;;;16.72;58.30
62655;BME280;48717;55.556;37.816;2023-07-13T07:34:13;98463.28;;;16.86;57.80
62655;BME280;48717;55.556;37.816;2023-07-13T07:36:41;98459.97;;;16.81;58.89
62655;BME280;48717;55.556;37.816;2023-07-13T07:39:11;98460.56;;;16.68;59.17
62655;BME280;48717;55.556;37.816;2023-07-13T07:41:38;98466.19;;;16.62;58.17
62655;BME280;48717;55.556;37.816;2023-07-13T07:44:08;98464.44;;;16.61;58.77
62655;BME280;48717;55.556;37.816;2023-07-13T07:46:36;98461.00;;;16.59;59.18
62655;BME280;48717;55.556;37.816;2023-07-13T07:49:04;98478.25;;;16.69;59.14
62655;BME280;48717;55.556;37.816;2023-07-13T07:51:31;98461.66;;;16.64;59.42
62655;BME280;48717;55.556;37.816;2023-07-13T07:53:58;98471.34;;;16.84;58.39
62655;BME280;48717;55.556;37.816;2023-07-13T07:56:25;98467.03;;;16.82;57.33
62655;BME280;48717;55.556;37.816;2023-07-13T07:58:55;98469.56;;;17.03;57.42
62655;BME280;48717;55.556;37.816;2023-07-13T08:01:25;98486.22;;;17.08;56.42
62655;BME280;48717;55.556;37.816;2023-07-13T08:03:55;98487.09;;;17.08;56.64
62655;BME280;48717;55.556;37.816;2023-07-13T08:06:25;98491.16;;;16.96;57.63
62655;BME280;48717;55.556;37.816;2023-07-13T08:08:55;98489.03;;;16.86;59.18
62655;BME280;48717;55.556;37.816;2023-07-13T08:11:22;98479.69;;;16.77;59.67
62655;BME280;48717;55.556;37.816;2023-07-13T08:13:52;98466.13;;;16.64;60.27
62655;BME280;48717;55.556;37.816;2023-07-13T08:16:22;98477.13;;;16.56;61.10
62655;BME280;48717;55.556;37.816;2023-07-13T08:18:49;98464.69;;;16.37;61.88
62655;BME280;48717;55.556;37.816;2023-07-13T08:21:17;98490.50;;;16.35;64.23
62655;BME280;48717;55.556;37.816;2023-07-13T08:23:46;98492.31;;;16.14;64.34
62655;BME280;48717;55.556;37.816;2023-07-13T08:26:14;98483.41;;;15.96;65.82
62655;BME280;48717;55.556;37.816;2023-07-13T08:28:41;98488.81;;;15.92;66.96
62655;BME280;48717;55.556;37.816;2023-07-13T08:31:09;98480.31;;;15.84;66.96
62655;BME280;48717;55.556;37.816;2023-07-13T08:33:37;98487.63;;;15.79;65.25
62655;BME280;48717;55.556;37.816;2023-07-13T08:36:05;98493.88;;;15.78;63.42
62655;BME280;48717;55.556;37.816;2023-07-13T08:38:33;98483.91;;;15.83;63.67
62655;BME280;48717;55.556;37.816;2023-07-13T08:41:03;98488.94;;;15.89;62.84
62655;BME280;48717;55.556;37.816;2023-07-13T08:43:37;98476.34;;;15.95;62.30
62655;BME280;48717;55.556;37.816;2023-07-13T08:46:25;98486.44;;;16.07;62.60
62655;BME280;48717;55.556;37.816;2023-07-13T08:48:58;98485.13;;;15.97;62.28
62655;BME280;48717;55.556;37.816;2023-07-13T08:51:52;98480.03;;;15.90;61.17
62655;BME280;48717;55.556;37.816;2023-07-13T08:54:42;98497.22;;;16.04;61.19
62655;BME280;48717;55.556;37.816;2023-07-13T08:57:12;98486.28;;;16.10;61.60
62655;BME280;48717;55.556;37.816;2023-07-13T08:59:40;98497.06;;;16.07;59.25
62655;BME280;48717;55.556;37.816;2023-07-13T09:04:50;98459.41;;;15.97;57.58
62655;BME280;48717;55.556;37.816;2023-07-13T09:07:33;98489.47;;;16.18;56.58
62655;BME280;48717;55.556;37.816;2023-07-13T09:15:39;98459.41;;;16.16;59.25
62655;BME280;48717;55.556;37.816;2023-07-13T09:21:07;98480.78;;;16.34;65.53
62655;BME280;48717;55.556;37.816;2023-07-13T09:23:37;98493.28;;;16.32;66.92
62655;BME280;48717;55.556;37.816;2023-07-13T09:26:11;98490.50;;;16.35;68.40
62655;BME280;48717;55.556;37.816;2023-07-13T09:28:44;98486.09;;;16.34;68.96
62655;BME280;48717;55.556;37.816;2023-07-13T09:31:31;98489.19;;;16.25;70.24
62655;BME280;48717;55.556;37.816;2023-07-13T09:34:07;98498.56;;;16.34;71.12
62655;BME280;48717;55.556;37.816;2023-07-13T09:36:36;98505.00;;;16.28;69.61
62655;BME280;48717;55.556;37.816;2023-07-13T09:39:15;98484.59;;;16.28;70.66
62655;BME280;48717;55.556;37.816;2023-07-13T09:42:14;98503.88;;;16.53;68.96
62655;BME280;48717;55.556;37.816;2023-07-13T09:47:23;98507.75;;;16.84;65.31
62655;BME280;48717;55.556;37.816;2023-07-13T09:50:02;98514.22;;;16.59;63.40
62655;BME280;48717;55.556;37.816;2023-07-13T09:52:45;98507.19;;;16.58;64.22
62655;BME280;48717;55.556;37.816;2023-07-13T09:55:37;98507.47;;;16.52;64.81
62655;BME280;48717;55.556;37.816;2023-07-13T10:00:38;98490.78;;;16.48;66.31
62655;BME280;48717;55.556;37.816;2023-07-13T10:03:23;98498.41;;;16.17;64.73
62655;BME280;48717;55.556;37.816;2023-07-13T10:05:51;98504.69;;;16.15;67.65
62655;BME280;48717;55.556;37.816;2023-07-13T10:08:26;98493.06;;;16.17;67.65
62655;BME280;48717;55.556;37.816;2023-07-13T10:11:00;98488.16;;;15.87;68.44
62655;BME280;48717;55.556;37.816;2023-07-13T10:13:32;98508.69;;;15.84;67.87
62655;BME280;48717;55.556;37.816;2023-07-13T10:16:02;98510.50;;;15.83;69.59
62655;BME280;48717;55.556;37.816;2023-07-13T10:18:55;98514.22;;;15.79;69.69
62655;BME280;48717;55.556;37.816;2023-07-13T10:21:21;98514.22;;;15.79;69.78
62655;BME280;48717;55.556;37.816;2023-07-13T10:23:55;98513.22;;;15.82;70.46
62655;BME280;48717;55.556;37.816;2023-07-13T10:26:31;98517.81;;;15.78;69.99
62655;BME280;48717;55.556;37.816;2023-07-13T10:29:03;98511.28;;;15.64;70.93
62655;BME280;48717;55.556;37.816;2023-07-13T10:31:31;98521.78;;;15.68;72.64
62655;BME280;48717;55.556;37.816;2023-07-13T10:33:59;98528.97;;;15.65;71.75
62655;BME280;48717;55.556;37.816;2023-07-13T10:36:41;98515.25;;;15.54;72.89
62655;BME280;48717;55.556;37.816;2023-07-13T10:39:16;98532.69;;;15.39;74.65
62655;BME280;48717;55.556;37.816;2023-07-13T10:41:45;98535.06;;;15.24;75.86
62655;BME280;48717;55.556;37.816;2023-07-13T10:44:19;98528.47;;;15.12;77.00
62655;BME280;48717;55.556;37.816;2023-07-13T10:46:48;98518.16;;;15.05;77.21
62655;BME280;48717;55.556;37.816;2023-07-13T10:49:17;98518.88;;;14.86;76.46
62655;BME280;48717;55.556;37.816;2023-07-13T10:51:45;98516.88;;;14.69;77.17
62655;BME280;48717;55.556;37.816;2023-07-13T10:56:48;98539.13;;;14.65;80.15
62655;BME280;48717;55.556;37.816;2023-07-13T10:59:27;98538.56;;;14.56;80.31
62655;BME280;48717;55.556;37.816;2023-07-13T11:01:56;98530.78;;;14.52;82.94
62655;BME280;48717;55.556;37.816;2023-07-13T11:04:25;98536.25;;;14.47;81.81
62655;BME280;48717;55.556;37.816;2023-07-13T11:06:58;98540.63;;;14.48;83.11
62655;BME280;48717;55.556;37.816;2023-07-13T11:09:38;98532.91;;;14.42;82.68
62655;BME280;48717;55.556;37.816;2023-07-13T11:17:59;98542.06;;;14.33;86.43
62655;BME280;48717;55.556;37.816;2023-07-13T11:20:35;98544.03;;;14.28;88.60
62655;BME280;48717;55.556;37.816;2023-07-13T11:25:39;98537.34;;;14.17;93.46
62655;BME280;48717;55.556;37.816;2023-07-13T11:30:42;98531.41;;;14.10;94.63
62655;BME280;48717;55.556;37.816;2023-07-13T11:33:22;98532.06;;;13.92;95.68
62655;BME280;48717;55.556;37.816;2023-07-13T11:35:58;98544.50;;;13.90;94.52
62655;BME280;48717;55.556;37.816;2023-07-13T11:38:36;98542.25;;;13.77;92.04
62655;BME280;48717;55.556;37.816;2023-07-13T11:41:19;98541.78;;;13.66;86.09
62655;BME280;48717;55.556;37.816;2023-07-13T11:43:54;98531.97;;;13.41;85.76
62655;BME280;48717;55.556;37.816;2023-07-13T11:46:24;98539.13;;;13.39;82.71
62655;BME280;48717;55.556;37.816;2023-07-13T11:48:52;98530.88;;;13.21;84.69
62655;BME280;48717;55.556;37.816;2023-07-13T11:51:28;98532.59;;;13.22;86.77
62655;BME280;48717;55.556;37.816;2023-07-13T11:54:03;98523.22;;;13.12;88.99
62655;BME280;48717;55.556;37.816;2023-07-13T11:56:30;98532.81;;;13.16;91.68
62655;BME280;48717;55.556;37.816;2023-07-13T11:59:07;98536.13;;;13.23;92.37
62655;BME280;48717;55.556;37.816;2023-07-13T12:01:48;98536.03;;;13.24;93.47
62655;BME280;48717;55.556;37.816;2023-07-13T12:04:35;98513.41;;;13.15;94.63
62655;BME280;48717;55.556;37.816;2023-07-13T12:07:11;98530.88;;;13.21;95.41
62655;BME280;48717;55.556;37.816;2023-07-13T12:09:41;98532.81;;;13.16;97.64
62655;BME280;48717;55.556;37.816;2023-07-13T12:12:18;98517.81;;;13.15;99.62
62655;BME280;48717;55.556;37.816;2023-07-13T12:14:45;98534.44;;;13.20;99.74
62655;BME280;48717;55.556;37.816;2023-07-13T12:17:19;98534.31;;;13.23;99.08
62655;BME280;48717;55.556;37.816;2023-07-13T12:19:49;98529.16;;;13.20;100.00
62655;BME280;48717;55.556;37.816;2023-07-13T12:22:18;98523.72;;;13.23;100.00
62655;BME280;48717;55.556;37.816;2023-07-13T12:24:47;98529.22;;;13.17;100.00
62655;BME280;48717;55.556;37.816;2023-07-13T12:27:33;98530.97;;;13.18;99.62
62655;BME280;48717;55.556;37.816;2023-07-13T12:30:03;98530.00;;;13.21;99.57
62655;BME280;48717;55.556;37.816;2023-07-13T12:32:33;98532.81;;;13.16;99.22
62655;BME280;48717;55.556;37.816;2023-07-13T12:35:15;98529.31;;;13.14;99.90
62655;BME280;48717;55.556;37.816;2023-07-13T12:37:45;98525.88;;;13.12;100.00
62655;BME280;48717;55.556;37.816;2023-07-13T12:40:15;98530.16;;;13.16;98.92
62655;BME280;48717;55.556;37.816;2023-07-13T12:42:49;98519.72;;;13.11;97.70
62655;BME280;48717;55.556;37.816;2023-07-13T12:45:24;98519.72;;;13.11;97.33
62655;BME280;48717;55.556;37.816;2023-07-13T12:48:03;98520.59;;;13.12;97.73
62655;BME280;48717;55.556;37.816;2023-07-13T12:50:41;98519.75;;;13.10;96.79
62655;BME280;48717;55.556;37.816;2023-07-13T12:53:14;98524.25;;;13.08;95.30
62655;BME280;48717;55.556;37.816;2023-07-13T12:58:18;98512.03;;;13.03;95.81
62655;BME280;48717;55.556;37.816;2023-07-13T13:00:49;98510.38;;;12.99;97.29
62655;BME280;48717;55.556;37.816;2023-07-13T13:06:03;98512.50;;;12.88;98.15
62655;BME280;48717;55.556;37.816;2023-07-13T13:08:36;98512.50;;;12.88;99.41
62655;BME280;48717;55.556;37.816;2023-07-13T13:11:03;98515.13;;;12.88;100.00
62655;BME280;48717;55.556;37.816;2023-07-13T13:13:31;98521.16;;;12.93;100.00
62655;BME280;48717;55.556;37.816;2023-07-13T13:16:08;98517.63;;;12.94;98.76
62655;BME280;48717;55.556;37.816;2023-07-13T13:18:36;98524.84;;;12.89;98.17
62655;BME280;48717;55.556;37.816;2023-07-13T13:21:03;98507.41;;;12.82;97.63
62655;BME280;48717;55.556;37.816;2023-07-13T13:23:30;98508.97;;;12.89;96.42
62655;BME280;48717;55.556;37.816;2023-07-13T13:25:58;98491.91;;;12.69;96.32
62655;BME280;48717;55.556;37.816;2023-07-13T13:28:25;98517.91;;;12.85;96.47
62655;BME280;48717;55.556;37.816;2023-07-13T13:30:53;98497.00;;;12.75;96.99
62655;BME280;48717;55.556;37.816;2023-07-13T13:33:21;98498.84;;;12.73;98.04
62655;BME280;48717;55.556;37.816;2023-07-13T13:35:48;98498.56;;;12.83;99.12
62655;BME280;48717;55.556;37.816;2023-07-13T13:38:20;98504.81;;;12.80;99.78
62655;BME280;48717;55.556;37.816;2023-07-13T13:40:47;98506.78;;;12.73;99.24
62655;BME280;48717;55.556;37.816;2023-07-13T13:45:44;98484.19;;;12.63;98.55